Time;durP1;ratioP1;P1;durP2;ratioP2;P2;SDS_P1;SDS_P2;PMS_P1;PMS_P2;Temp;Humidity;BMP_temperature;BMP_pressure;BME280_temperature;BME280_humidity;BME280_pressure;Samples;Min_cycle;Max_cycle;Signal;HPM_P1;HPM_P2
2021/11/26 00:01:04;;;;;;;54.53;30.83;;;;;;;5.75;56.11;99298.75;4933665;28;97594;-75
2021/11/26 00:03:31;;;;;;;51.07;30.90;;;;;;;5.60;56.24;99282.69;4934993;28;96546;-75
2021/11/26 00:05:56;;;;;;;51.07;29.97;;;;;;;5.60;56.40;99280.06;4918265;28;96743;-75
2021/11/26 00:08:22;;;;;;;48.30;29.33;;;;;;;5.58;56.48;99281.00;4933850;28;97450;-75
2021/11/26 00:10:48;;;;;;;47.00;28.30;;;;;;;5.59;56.42;99270.56;4950246;28;97712;-75
2021/11/26 00:13:14;;;;;;;47.50;29.17;;;;;;;5.55;56.12;99262.88;4917842;28;96571;-75
2021/11/26 00:15:41;;;;;;;45.10;29.67;;;;;;;5.39;56.17;99254.69;4934308;28;96750;-75
2021/11/26 00:18:19;;;;;;;49.03;30.13;;;;;;;5.32;56.43;99246.19;4917720;28;97954;-75
2021/11/26 00:20:45;;;;;;;43.70;26.83;;;;;;;5.27;56.42;99245.50;4949332;28;97719;-75
2021/11/26 00:23:12;;;;;;;42.70;26.53;;;;;;;5.26;56.40;99250.75;4950275;28;96472;-76
2021/11/26 00:25:37;;;;;;;48.22;29.67;;;;;;;5.29;56.34;99255.84;4935325;28;96732;-75
2021/11/26 00:28:03;;;;;;;54.13;31.33;;;;;;;5.32;56.76;99247.97;4949235;28;100377;-75
2021/11/26 00:30:29;;;;;;;43.53;27.53;;;;;;;5.34;56.37;99243.56;4950003;28;97673;-75
2021/11/26 00:32:55;;;;;;;50.30;30.13;;;;;;;5.40;56.19;99238.19;4950174;28;96750;-75
2021/11/26 00:35:20;;;;;;;45.10;28.17;;;;;;;5.41;56.21;99245.94;4950239;28;96813;-75
2021/11/26 00:37:46;;;;;;;47.07;29.60;;;;;;;5.33;55.99;99234.91;4934896;28;97376;-75
2021/11/26 00:40:12;;;;;;;44.17;28.70;;;;;;;5.33;56.07;99232.31;4949859;28;96669;-75
2021/11/26 00:42:41;;;;;;;50.38;30.48;;;;;;;5.44;55.89;99232.00;4950253;28;96551;-75
2021/11/26 00:45:08;;;;;;;46.80;28.93;;;;;;;5.45;55.96;99236.28;4934268;28;96778;-74
2021/11/26 00:47:34;;;;;;;45.03;28.03;;;;;;;5.48;55.76;99235.34;4934679;28;97496;-74
2021/11/26 00:50:00;;;;;;;43.50;27.53;;;;;;;5.43;55.65;99236.31;4933715;28;97125;-75
2021/11/26 00:52:25;;;;;;;51.47;30.33;;;;;;;5.38;55.68;99233.03;4933240;28;96653;-75
2021/11/26 00:54:51;;;;;;;47.47;27.57;;;;;;;5.46;55.36;99245.78;4950103;28;96708;-75
2021/11/26 00:57:16;;;;;;;45.33;27.70;;;;;;;5.51;55.56;99243.06;4934646;28;97545;-75
2021/11/26 00:59:42;;;;;;;39.33;26.67;;;;;;;5.50;55.04;99247.44;4933050;28;97296;-75
2021/11/26 01:02:08;;;;;;;41.37;27.13;;;;;;;5.50;55.39;99239.63;4934971;28;96522;-74
2021/11/26 01:04:34;;;;;;;39.07;25.73;;;;;;;5.52;55.02;99227.38;4949846;28;97017;-75
2021/11/26 01:06:59;;;;;;;40.37;26.67;;;;;;;5.53;55.65;99220.44;4917091;28;100563;-74
2021/11/26 01:09:25;;;;;;;40.00;27.40;;;;;;;5.46;55.47;99214.56;4933411;28;100493;-74
2021/11/26 01:11:51;;;;;;;37.80;25.67;;;;;;;5.51;55.66;99201.41;4934974;28;96353;-74
2021/11/26 01:14:17;;;;;;;35.37;24.63;;;;;;;5.49;55.67;99185.84;4933560;28;96781;-76
2021/11/26 01:16:42;;;;;;;39.63;26.17;;;;;;;5.50;55.93;99186.69;4949262;28;96671;-75
2021/11/26 01:19:08;;;;;;;36.90;24.60;;;;;;;5.50;55.54;99194.47;4934471;28;97116;-74
2021/11/26 01:21:34;;;;;;;39.17;26.50;;;;;;;5.55;55.35;99203.84;4934815;28;96353;-74
2021/11/26 01:23:59;;;;;;;38.80;25.43;;;;;;;5.55;55.65;99203.84;4949491;28;96963;-74
2021/11/26 01:26:25;;;;;;;34.07;24.40;;;;;;;5.48;55.59;99194.56;4934381;28;97519;-74
2021/11/26 01:28:51;;;;;;;41.33;26.97;;;;;;;5.50;55.60;99187.56;4933113;28;97139;-74
2021/11/26 01:31:18;;;;;;;36.50;25.60;;;;;;;5.55;55.43;99187.41;4933822;28;96574;-75
2021/11/26 01:33:44;;;;;;;36.67;25.60;;;;;;;5.60;55.31;99188.09;4953038;28;96702;-74
2021/11/26 01:36:10;;;;;;;38.40;26.83;;;;;;;5.47;55.28;99195.47;4952367;28;97145;-75
2021/11/26 01:38:35;;;;;;;35.90;25.70;;;;;;;5.49;55.39;99196.25;4952569;28;97110;-75
2021/11/26 01:41:04;;;;;;;35.37;24.57;;;;;;;5.47;55.44;99190.25;4952418;28;96364;-74
2021/11/26 01:43:30;;;;;;;40.93;25.90;;;;;;;5.49;55.51;99183.22;4936395;28;96789;-74
2021/11/26 01:46:08;;;;;;;37.40;25.23;;;;;;;5.49;55.32;99179.78;4952487;28;97694;-75
2021/11/26 01:48:36;;;;;;;41.87;26.43;;;;;;;5.47;55.74;99174.63;4951795;28;97734;-75
2021/11/26 01:51:02;;;;;;;36.27;25.17;;;;;;;5.45;55.62;99179.03;4937649;28;96501;-74
2021/11/26 01:53:27;;;;;;;38.60;26.47;;;;;;;5.42;56.30;99181.72;4936039;28;96704;-74
2021/11/26 01:55:53;;;;;;;36.40;24.87;;;;;;;5.47;55.94;99191.97;4952155;28;97363;-74
2021/11/26 01:58:20;;;;;;;37.63;26.00;;;;;;;5.46;55.44;99196.34;4952417;28;97785;-74
2021/11/26 02:00:47;;;;;;;33.88;23.65;;;;;;;5.49;55.54;99184.97;4935807;28;96867;-74
2021/11/26 02:03:13;;;;;;;37.87;26.47;;;;;;;5.43;55.61;99183.41;4952365;28;96696;-75
2021/11/26 02:05:38;;;;;;;32.33;23.47;;;;;;;5.45;55.63;99177.28;4936667;28;97563;-75
2021/11/26 02:08:04;;;;;;;41.03;26.33;;;;;;;5.43;55.67;99176.47;4937048;28;97356;-74
2021/11/26 02:10:30;;;;;;;37.23;25.43;;;;;;;5.45;55.30;99168.63;4937312;28;96554;-75
2021/11/26 02:12:55;;;;;;;37.70;27.73;;;;;;;5.46;55.67;99157.28;4936114;28;96791;-74
2021/11/26 02:15:24;;;;;;;40.60;25.60;;;;;;;5.52;55.42;99148.44;4935589;28;97600;-74
2021/11/26 02:17:51;;;;;;;36.07;24.97;;;;;;;5.48;55.53;99150.31;4951858;28;97141;-74
2021/11/26 02:20:19;;;;;;;37.97;24.97;;;;;;;5.47;55.24;99150.34;4952163;28;96576;-74
2021/11/26 02:22:46;;;;;;;38.33;25.47;;;;;;;5.51;55.28;99150.19;4919839;28;96728;-74
2021/11/26 02:25:12;;;;;;;36.03;24.33;;;;;;;5.52;55.55;99151.03;4935519;28;97419;-74
2021/11/26 02:27:38;;;;;;;36.07;25.47;;;;;;;5.52;55.74;99140.63;4935540;28;97151;-74
2021/11/26 02:30:18;;;;;;;37.77;25.80;;;;;;;5.50;55.41;99147.63;4951833;28;96381;-74
2021/11/26 02:32:51;;;;;;;40.60;25.17;;;;;;;5.49;55.18;99135.53;4950244;28;96535;-75
2021/11/26 02:35:17;;;;;;;33.47;23.23;;;;;;;5.47;55.65;99142.53;4935444;28;97544;-75
2021/11/26 02:37:43;;;;;;;34.13;24.50;;;;;;;5.43;56.08;99153.03;4918965;28;100172;-74
2021/11/26 02:40:11;;;;;;;34.93;24.27;;;;;;;5.43;55.79;99140.03;4951986;28;96639;-75
2021/11/26 02:42:38;;;;;;;36.57;25.50;;;;;;;5.25;55.86;99140.59;4918928;28;96909;-75
2021/11/26 02:45:06;;;;;;;37.57;26.27;;;;;;;5.16;56.61;99141.75;4935352;28;97998;-75
2021/11/26 02:47:32;;;;;;;37.13;25.63;;;;;;;5.18;56.27;99139.97;4951488;28;100014;-75
2021/11/26 02:49:58;;;;;;;36.43;23.87;;;;;;;5.13;56.46;99130.59;4935786;28;96546;-75
2021/11/26 02:52:23;;;;;;;36.50;24.77;;;;;;;5.19;56.55;99120.84;4951690;28;96730;-75
2021/11/26 02:54:52;;;;;;;35.37;24.50;;;;;;;5.24;56.40;99125.91;4934787;28;97379;-75
2021/11/26 02:57:18;;;;;;;43.00;26.50;;;;;;;5.31;56.07;99119.59;4918602;28;100098;-75
2021/11/26 02:59:43;;;;;;;40.67;25.73;;;;;;;5.24;56.31;99122.47;4934951;28;96956;-75
2021/11/26 03:02:09;;;;;;;36.10;25.97;;;;;;;5.17;56.91;99121.78;4935511;28;96687;-75
2021/11/26 03:04:34;;;;;;;39.10;26.17;;;;;;;4.95;57.34;99122.44;4935059;28;97374;-75
2021/11/26 03:07:06;;;;;;;43.00;28.40;;;;;;;4.92;57.81;99121.69;4936280;28;97046;-74
2021/11/26 03:09:32;;;;;;;42.13;29.63;;;;;;;4.78;58.25;99124.69;4934907;28;96507;-74
2021/11/26 03:11:59;;;;;;;40.03;26.50;;;;;;;4.67;58.69;99116.34;4951950;28;96750;-76
2021/11/26 03:14:25;;;;;;;39.13;26.53;;;;;;;4.72;58.70;99110.13;4951025;28;97706;-76
2021/11/26 03:16:50;;;;;;;41.23;25.50;;;;;;;4.67;59.02;99098.16;4951070;28;97847;-75
2021/11/26 03:19:16;;;;;;;36.63;25.87;;;;;;;4.67;59.03;99091.19;4950872;28;96549;-76
2021/11/26 03:21:42;;;;;;;37.27;25.87;;;;;;;4.60;59.07;99084.50;4936415;28;96742;-76
2021/11/26 03:24:07;;;;;;;35.30;25.33;;;;;;;4.64;59.08;99080.06;4934764;28;97680;-76
2021/11/26 03:26:33;;;;;;;37.60;24.90;;;;;;;4.72;59.15;99073.72;4950848;28;97209;-75
2021/11/26 03:28:59;;;;;;;37.67;25.03;;;;;;;4.80;58.94;99067.44;4936185;28;96555;-75
2021/11/26 03:31:24;;;;;;;35.97;25.67;;;;;;;4.74;59.16;99071.94;4951274;28;96786;-76
2021/11/26 03:33:50;;;;;;;40.60;28.00;;;;;;;4.76;59.37;99061.47;4918093;28;100415;-76
2021/11/26 03:36:15;;;;;;;40.13;27.20;;;;;;;4.71;59.06;99065.97;4936014;28;97074;-76
2021/11/26 03:38:41;;;;;;;40.73;25.03;;;;;;;4.70;59.42;99062.50;4934733;28;96407;-76
2021/11/26 03:41:07;;;;;;;38.33;26.37;;;;;;;4.73;59.40;99053.78;4951185;28;96627;-75
2021/11/26 03:43:32;;;;;;;36.67;26.03;;;;;;;4.74;59.15;99053.75;4933967;28;97474;-75
2021/11/26 03:45:58;;;;;;;37.87;26.20;;;;;;;4.78;59.24;99059.69;4934103;28;100469;-75
2021/11/26 03:48:24;;;;;;;33.57;24.10;;;;;;;4.77;59.20;99052.81;4950933;28;96501;-74
2021/11/26 03:50:49;;;;;;;37.47;25.90;;;;;;;4.86;59.10;99059.44;4934492;28;96854;-73
2021/11/26 03:53:18;;;;;;;38.10;26.03;;;;;;;4.88;59.09;99065.44;4935523;28;97347;-74
2021/11/26 03:55:43;;;;;;;34.30;24.40;;;;;;;4.84;58.95;99066.47;4932801;28;97159;-74
2021/11/26 03:58:09;;;;;;;39.00;26.40;;;;;;;4.80;59.27;99059.63;4950534;28;96561;-74
2021/11/26 04:00:35;;;;;;;36.73;24.63;;;;;;;4.85;59.21;99058.59;4918163;28;96776;-74
2021/11/26 04:03:00;;;;;;;41.23;26.40;;;;;;;4.84;59.03;99056.91;4950164;28;100238;-75
2021/11/26 04:05:26;;;;;;;41.17;25.93;;;;;;;4.76;59.20;99064.09;4934041;28;97706;-75
2021/11/26 04:07:52;;;;;;;38.13;25.80;;;;;;;4.71;59.41;99063.38;4933838;28;96454;-74
2021/11/26 04:10:18;;;;;;;37.30;25.07;;;;;;;4.72;59.72;99067.69;4950254;28;96922;-74
2021/11/26 04:12:45;;;;;;;34.83;25.03;;;;;;;4.74;59.73;99068.47;4934058;28;97340;-74
2021/11/26 04:15:13;;;;;;;36.60;24.27;;;;;;;4.72;60.00;99065.09;4933939;28;97682;-76
2021/11/26 04:17:39;;;;;;;41.00;26.17;;;;;;;4.79;59.31;99050.13;4950044;28;96512;-75
2021/11/26 04:20:06;;;;;;;38.33;25.63;;;;;;;4.80;59.10;99054.44;4950388;28;96816;-75
2021/11/26 04:22:32;;;;;;;37.37;24.73;;;;;;;4.70;59.40;99053.88;4933454;28;100803;-74
2021/11/26 04:24:58;;;;;;;37.77;25.90;;;;;;;4.71;59.68;99055.56;4935440;28;97340;-74
2021/11/26 04:27:23;;;;;;;36.20;24.63;;;;;;;4.73;59.80;99046.81;4950406;28;96441;-75
2021/11/26 04:29:49;;;;;;;36.63;25.67;;;;;;;4.69;59.66;99034.81;4934207;28;96838;-75
2021/11/26 04:32:15;;;;;;;38.20;24.90;;;;;;;4.66;59.78;99047.06;4933197;28;96592;-76
2021/11/26 04:34:41;;;;;;;37.20;24.43;;;;;;;4.57;60.08;99043.00;4917491;28;100306;-74
2021/11/26 04:37:07;;;;;;;35.53;25.27;;;;;;;4.64;59.59;99036.72;4933992;28;96663;-74
2021/11/26 04:39:32;;;;;;;37.17;25.33;;;;;;;4.72;59.86;99028.69;4949966;28;96758;-74
2021/11/26 04:41:58;;;;;;;38.57;25.90;;;;;;;4.70;59.84;99031.31;4949934;28;97412;-74
2021/11/26 04:44:24;;;;;;;40.97;26.83;;;;;;;4.53;60.14;99031.81;4949831;28;97754;-74
2021/11/26 04:46:49;;;;;;;39.47;26.93;;;;;;;4.52;60.65;99027.53;4950302;28;96596;-74
2021/11/26 04:49:15;;;;;;;41.17;25.93;;;;;;;4.58;60.62;99030.84;4934375;28;96808;-74
2021/11/26 04:51:40;;;;;;;39.73;26.77;;;;;;;4.62;60.46;99027.25;4934859;28;97668;-75
2021/11/26 04:54:06;;;;;;;41.07;26.93;;;;;;;4.65;60.30;99021.97;4949861;28;97660;-74
2021/11/26 04:56:32;;;;;;;33.03;24.60;;;;;;;4.62;60.25;99027.25;4949338;28;96460;-75
2021/11/26 04:58:58;;;;;;;35.23;24.73;;;;;;;4.70;60.50;99022.69;4949386;28;96788;-74
2021/11/26 05:01:24;;;;;;;39.07;26.50;;;;;;;4.75;60.25;99007.78;4949966;28;98207;-74
2021/11/26 05:03:51;;;;;;;40.83;26.60;;;;;;;4.80;60.15;99010.22;4949814;28;97063;-75
2021/11/26 05:06:17;;;;;;;35.63;25.53;;;;;;;4.80;60.13;99005.03;4951587;28;96649;-74
2021/11/26 05:08:43;;;;;;;37.13;24.00;;;;;;;4.86;60.08;98999.63;4938208;28;96685;-74
2021/11/26 05:11:09;;;;;;;36.03;25.70;;;;;;;4.93;59.89;98994.19;4952742;28;97803;-74
2021/11/26 05:13:41;;;;;;;37.80;25.77;;;;;;;4.97;59.98;98990.63;4936998;28;97165;-75
2021/11/26 05:16:06;;;;;;;36.03;24.38;;;;;;;5.05;59.98;98992.94;4938325;28;96520;-75
2021/11/26 05:18:32;;;;;;;35.57;24.73;;;;;;;5.07;59.96;98985.97;4920468;28;96566;-74
2021/11/26 05:20:57;;;;;;;42.03;26.73;;;;;;;5.09;59.74;98978.97;4937233;28;97934;-74
2021/11/26 05:23:24;;;;;;;38.70;25.77;;;;;;;5.14;59.86;98974.44;4936411;28;97024;-74
2021/11/26 05:25:50;;;;;;;34.47;24.70;;;;;;;5.19;59.51;98976.91;4936709;28;96811;-75
2021/11/26 05:28:16;;;;;;;38.07;26.30;;;;;;;5.16;59.44;98979.59;4937733;28;96661;-74
2021/11/26 05:30:42;;;;;;;37.40;23.77;;;;;;;5.20;59.22;98986.38;4952796;28;97940;-75
2021/11/26 05:33:07;;;;;;;42.53;26.37;;;;;;;5.17;59.41;98982.13;4919838;28;99283;-74
2021/11/26 05:35:33;;;;;;;39.93;25.03;;;;;;;5.20;59.29;98978.59;4952864;28;96431;-75
2021/11/26 05:37:59;;;;;;;39.13;25.03;;;;;;;5.21;59.53;98985.50;4953008;28;96782;-75
2021/11/26 05:40:24;;;;;;;42.60;25.90;;;;;;;5.21;59.69;98986.34;4936053;28;100154;-75
2021/11/26 05:42:50;;;;;;;40.70;27.20;;;;;;;5.22;59.66;98984.59;4952554;28;97046;-74
2021/11/26 05:45:17;;;;;;;48.43;29.20;;;;;;;5.24;59.55;98976.75;4935911;28;96577;-75
2021/11/26 05:47:43;;;;;;;44.27;27.00;;;;;;;5.22;59.83;98974.19;4919751;28;96844;-75
2021/11/26 05:50:11;;;;;;;42.20;26.13;;;;;;;5.24;59.93;98971.56;4952484;28;97889;-75
2021/11/26 05:52:40;;;;;;;42.80;27.30;;;;;;;5.22;59.90;98972.44;4935785;28;98910;-75
2021/11/26 05:55:08;;;;;;;39.67;25.77;;;;;;;5.26;59.73;98973.19;4935808;28;96838;-74
2021/11/26 05:57:34;;;;;;;40.73;25.90;;;;;;;5.28;59.38;98963.56;4935854;28;96838;-74
2021/11/26 06:00:00;;;;;;;38.47;25.30;;;;;;;5.29;59.43;98960.06;4935542;28;97948;-75
2021/11/26 06:02:25;;;;;;;37.10;23.93;;;;;;;5.33;59.26;98961.66;4952154;28;100008;-74
2021/11/26 06:04:51;;;;;;;37.17;24.37;;;;;;;5.32;59.29;98943.50;4937151;28;96510;-74
2021/11/26 06:07:17;;;;;;;37.57;23.87;;;;;;;5.33;59.70;98950.41;4935947;28;96673;-74
2021/11/26 06:09:42;;;;;;;34.43;23.73;;;;;;;5.33;59.52;98947.81;4951263;28;97988;-75
2021/11/26 06:12:09;;;;;;;34.53;23.20;;;;;;;5.33;59.40;98953.88;4936816;28;97172;-74
2021/11/26 06:14:36;;;;;;;33.57;22.17;;;;;;;5.34;59.42;98960.75;4935503;28;96442;-74
2021/11/26 06:17:02;;;;;;;35.57;23.33;;;;;;;5.36;59.46;98955.50;4936396;28;96704;-75
2021/11/26 06:19:27;;;;;;;36.10;23.00;;;;;;;5.37;59.10;98957.22;4951242;28;100430;-75
2021/11/26 06:21:53;;;;;;;38.17;24.60;;;;;;;5.38;59.42;98958.88;4935517;28;97614;-75
2021/11/26 06:24:18;;;;;;;38.87;24.47;;;;;;;5.39;59.53;98955.41;4919358;28;96547;-74
2021/11/26 06:26:44;;;;;;;42.70;26.57;;;;;;;5.42;59.41;98945.72;4936069;28;96698;-75
2021/11/26 06:29:12;;;;;;;40.63;26.07;;;;;;;5.39;58.97;98939.78;4951571;28;97323;-76
2021/11/26 06:31:38;;;;;;;36.03;25.50;;;;;;;5.38;58.99;98951.97;4950866;28;97511;-76
2021/11/26 06:34:04;;;;;;;39.07;26.40;;;;;;;5.37;58.93;98944.19;4935103;28;96423;-76
2021/11/26 06:36:31;;;;;;;36.90;24.87;;;;;;;5.38;58.54;98957.16;4951835;28;96464;-76
2021/11/26 06:38:57;;;;;;;37.97;23.97;;;;;;;5.40;58.98;98954.50;4934829;28;100742;-76
2021/11/26 06:41:22;;;;;;;35.63;24.33;;;;;;;5.40;58.85;98957.09;4935085;28;97480;-75
2021/11/26 06:43:48;;;;;;;37.73;25.07;;;;;;;5.34;58.90;98955.56;4936995;28;96627;-75
2021/11/26 06:46:13;;;;;;;35.50;24.73;;;;;;;5.31;59.27;98955.66;4951560;28;96882;-74
2021/11/26 06:48:39;;;;;;;40.03;26.53;;;;;;;5.33;58.91;98955.63;4918572;28;100181;-76
2021/11/26 06:51:05;;;;;;;40.30;24.73;;;;;;;5.26;59.47;98948.91;4936611;28;97381;-76
2021/11/26 06:53:30;;;;;;;32.27;22.20;;;;;;;5.30;59.30;98940.97;4918917;28;96615;-76
2021/11/26 06:55:56;;;;;;;34.53;21.50;;;;;;;5.35;58.82;98935.59;4951163;28;96846;-75
2021/11/26 06:58:21;;;;;;;37.57;22.90;;;;;;;5.37;58.75;98931.19;4950705;28;97306;-75
2021/11/26 07:00:47;;;;;;;37.63;23.50;;;;;;;5.44;58.56;98941.34;4950461;28;97372;-75
2021/11/26 07:03:13;;;;;;;36.17;23.57;;;;;;;5.47;58.44;98942.09;4934880;28;96457;-75
2021/11/26 07:05:38;;;;;;;33.10;23.33;;;;;;;5.43;57.81;98937.00;4935219;28;96969;-75
2021/11/26 07:08:04;;;;;;;34.20;22.33;;;;;;;5.40;58.34;98936.28;4950944;28;97203;-75
2021/11/26 07:10:32;;;;;;;36.70;24.20;;;;;;;5.45;58.54;98944.78;4935937;28;97199;-76
2021/11/26 07:12:58;;;;;;;42.77;27.07;;;;;;;5.42;58.68;98943.13;4936219;28;96536;-76
2021/11/26 07:15:24;;;;;;;36.83;25.73;;;;;;;5.44;58.88;98945.69;4951549;28;96758;-76
2021/11/26 07:17:49;;;;;;;42.43;25.07;;;;;;;5.50;58.85;98955.00;4950837;28;97717;-75
2021/11/26 07:20:15;;;;;;;35.33;23.17;;;;;;;5.51;58.82;98954.13;4934358;28;100557;-76
2021/11/26 07:22:42;;;;;;;39.23;25.00;;;;;;;5.50;58.93;98955.88;4934522;28;96400;-76
2021/11/26 07:25:08;;;;;;;40.70;26.03;;;;;;;5.45;58.61;98956.03;4934189;28;96766;-75
2021/11/26 07:27:34;;;;;;;41.53;26.10;;;;;;;5.48;58.88;98955.09;4934218;28;97938;-75
2021/11/26 07:30:00;;;;;;;38.83;26.60;;;;;;;5.54;58.57;98949.66;4933514;28;97033;-77
2021/11/26 07:32:25;;;;;;;42.63;27.43;;;;;;;5.44;59.18;98951.75;4950323;28;96482;-76
2021/11/26 07:34:51;;;;;;;43.37;27.30;;;;;;;5.43;59.28;98962.19;4918290;28;96813;-75
2021/11/26 07:37:17;;;;;;;40.13;27.27;;;;;;;5.38;59.50;98953.69;4935567;28;98006;-75
2021/11/26 07:39:44;;;;;;;47.53;27.80;;;;;;;5.36;59.78;98964.16;4934371;28;98929;-75
2021/11/26 07:42:10;;;;;;;46.80;28.00;;;;;;;5.23;60.22;98944.66;4950925;28;96622;-74
2021/11/26 07:44:38;;;;;;;39.57;25.77;;;;;;;5.13;61.01;98945.88;4950547;28;96733;-75
2021/11/26 07:47:05;;;;;;;40.53;26.93;;;;;;;5.15;60.36;98941.50;4933739;28;97411;-75
2021/11/26 07:49:30;;;;;;;44.83;28.67;;;;;;;5.18;61.00;98944.00;4950074;28;100582;-77
2021/11/26 07:51:57;;;;;;;41.13;27.40;;;;;;;5.29;60.56;98954.00;4934352;28;96620;-75
2021/11/26 07:54:23;;;;;;;42.90;27.80;;;;;;;5.26;60.27;98956.72;4934369;28;96714;-75
2021/11/26 07:56:49;;;;;;;49.87;30.37;;;;;;;5.20;60.80;98948.22;4933655;28;97576;-75
2021/11/26 07:59:14;;;;;;;43.00;27.50;;;;;;;5.16;60.90;98945.78;4949553;28;99916;-75
2021/11/26 08:01:40;;;;;;;41.47;27.73;;;;;;;5.13;61.40;98944.13;4950376;28;96534;-75
2021/11/26 08:04:06;;;;;;;41.93;28.40;;;;;;;5.22;60.74;98941.22;4935593;28;96709;-75
2021/11/26 08:06:31;;;;;;;49.23;29.17;;;;;;;5.33;60.55;98942.63;4917351;28;100865;-76
2021/11/26 08:08:57;;;;;;;42.20;29.03;;;;;;;5.28;60.56;98941.91;4933988;28;97153;-76
2021/11/26 08:11:22;;;;;;;47.47;28.40;;;;;;;5.23;60.79;98944.66;4933432;28;96456;-75
2021/11/26 08:13:48;;;;;;;44.40;28.73;;;;;;;5.26;60.73;98941.09;4950011;28;96774;-75
2021/11/26 08:16:13;;;;;;;42.57;27.40;;;;;;;5.27;60.27;98935.03;4933996;28;97519;-75
2021/11/26 08:18:39;;;;;;;40.53;25.83;;;;;;;5.32;60.18;98933.94;4933759;28;97145;-76
2021/11/26 08:21:05;;;;;;;42.40;27.57;;;;;;;5.32;60.45;98933.09;4950516;28;96366;-76
2021/11/26 08:23:31;;;;;;;41.63;26.60;;;;;;;5.34;60.31;98932.13;4935307;28;96700;-76
2021/11/26 08:25:59;;;;;;;45.83;28.40;;;;;;;5.38;60.24;98925.94;4933834;28;97341;-76
2021/11/26 08:28:26;;;;;;;43.30;27.23;;;;;;;5.43;60.54;98923.16;4933656;28;97441;-76
2021/11/26 08:30:52;;;;;;;43.23;27.07;;;;;;;5.37;60.30;98918.16;4917449;28;96511;-75
2021/11/26 08:33:18;;;;;;;45.10;28.73;;;;;;;5.37;60.08;98913.81;4950253;28;96634;-76
2021/11/26 08:35:44;;;;;;;49.10;28.60;;;;;;;5.39;60.37;98911.16;4949069;28;97378;-76
2021/11/26 08:38:09;;;;;;;48.10;31.47;;;;;;;5.39;60.30;98900.75;4933698;28;97747;-76
2021/11/26 08:40:35;;;;;;;48.43;30.43;;;;;;;5.45;60.03;98903.13;4951052;28;96427;-76
2021/11/26 08:43:01;;;;;;;45.42;30.08;;;;;;;5.47;60.36;98896.13;4937050;28;96871;-74
2021/11/26 08:45:27;;;;;;;45.27;29.93;;;;;;;5.51;60.06;98883.84;4936552;28;100268;-75
2021/11/26 08:47:53;;;;;;;46.80;30.17;;;;;;;5.55;60.72;98881.06;4920812;28;97087;-75
2021/11/26 08:50:20;;;;;;;41.53;27.33;;;;;;;5.55;60.32;98873.25;4920925;28;96509;-75
2021/11/26 08:52:46;;;;;;;43.67;27.43;;;;;;;5.62;59.81;98874.75;4953175;28;96717;-75
2021/11/26 08:55:15;;;;;;;42.47;26.60;;;;;;;5.61;59.86;98873.06;4936770;28;97423;-75
2021/11/26 08:57:48;;;;;;;42.07;26.00;;;;;;;5.64;60.42;98861.66;4952589;28;97110;-77
2021/11/26 09:00:14;;;;;;;37.40;25.43;;;;;;;5.68;59.92;98858.06;4951379;28;96837;-75
2021/11/26 09:02:39;;;;;;;39.97;25.23;;;;;;;5.72;59.95;98848.38;4938035;28;96712;-76
2021/11/26 09:05:05;;;;;;;39.30;25.33;;;;;;;5.78;59.80;98845.53;4936728;28;97922;-75
2021/11/26 09:07:31;;;;;;;36.10;23.63;;;;;;;5.79;59.85;98840.28;4936362;28;99256;-76
2021/11/26 09:09:56;;;;;;;32.10;22.60;;;;;;;5.80;59.95;98834.16;4920707;28;96812;-76
2021/11/26 09:12:24;;;;;;;33.30;22.63;;;;;;;5.80;60.03;98833.31;4936947;28;96944;-77
2021/11/26 09:14:50;;;;;;;37.37;21.70;;;;;;;5.83;59.68;98827.97;4920523;28;100618;-76
2021/11/26 09:17:19;;;;;;;33.63;22.77;;;;;;;5.87;59.76;98825.19;4936910;28;97172;-77
2021/11/26 09:19:46;;;;;;;32.60;22.63;;;;;;;5.99;59.90;98826.53;4936226;28;96569;-75
2021/11/26 09:22:11;;;;;;;35.73;23.03;;;;;;;5.98;59.45;98823.97;4952837;28;96786;-76
2021/11/26 09:24:37;;;;;;;32.60;23.90;;;;;;;5.80;59.56;98818.53;4935551;28;100193;-76
2021/11/26 09:27:03;;;;;;;36.83;23.50;;;;;;;5.73;59.84;98819.69;4936410;28;97850;-77
2021/11/26 09:29:29;;;;;;;34.57;22.90;;;;;;;5.84;59.42;98817.47;4952392;28;96714;-77
2021/11/26 09:31:54;;;;;;;34.70;22.63;;;;;;;5.83;59.90;98809.75;4936351;28;96770;-76
2021/11/26 09:34:20;;;;;;;32.10;21.93;;;;;;;5.90;59.73;98822.47;4936203;28;97402;-77
2021/11/26 09:36:46;;;;;;;34.33;21.27;;;;;;;5.92;59.88;98819.81;4935825;28;97144;-76
2021/11/26 09:39:11;;;;;;;36.47;23.27;;;;;;;5.92;59.98;98814.59;4919891;28;96480;-75
2021/11/26 09:41:37;;;;;;;36.17;22.33;;;;;;;5.93;59.51;98815.44;4952933;28;96668;-77
2021/11/26 09:44:04;;;;;;;32.80;22.37;;;;;;;5.99;59.72;98804.81;4936172;28;96628;-77
2021/11/26 09:46:37;;;;;;;36.87;23.93;;;;;;;6.07;59.06;98803.59;4935612;28;99401;-77
2021/11/26 09:49:03;;;;;;;32.10;21.03;;;;;;;6.03;59.48;98793.38;4919904;28;96546;-77
2021/11/26 09:51:29;;;;;;;33.30;21.67;;;;;;;5.94;59.43;98786.78;4935609;28;96653;-76
2021/11/26 09:53:55;;;;;;;34.30;21.00;;;;;;;5.95;59.00;98795.44;4935428;28;97449;-77
2021/11/26 09:56:21;;;;;;;30.83;20.70;;;;;;;5.93;59.21;98800.69;4918909;28;100555;-77
2021/11/26 09:58:47;;;;;;;27.60;19.67;;;;;;;5.87;59.12;98788.72;4952601;28;96562;-77
2021/11/26 10:01:13;;;;;;;30.53;19.73;;;;;;;6.05;59.94;98796.75;4935947;28;96870;-75
2021/11/26 10:03:45;;;;;;;41.47;24.53;;;;;;;6.09;59.66;98785.31;4935559;28;97537;-76
2021/11/26 10:06:25;;;;;;;;;;;;;;;5.79;59.68;98782.09;4936096;28;100745;-77
2021/11/26 10:09:10;;;;;;;29.73;20.47;;;;;;;5.80;59.34;98782.06;4937470;28;96477;-77
2021/11/26 10:11:48;;;;;;;33.87;22.43;;;;;;;5.81;59.64;98772.50;4936086;28;96685;-77
2021/11/26 10:14:20;;;;;;;30.40;19.33;;;;;;;5.84;59.94;98770.59;4935423;28;98012;-76
2021/11/26 10:16:48;;;;;;;33.87;21.83;;;;;;;5.86;59.66;98754.94;4935880;28;97751;-77
2021/11/26 10:19:15;;;;;;;31.83;20.90;;;;;;;5.90;59.98;98751.28;4937068;28;96408;-76
2021/11/26 10:21:42;;;;;;;32.47;20.03;;;;;;;5.95;59.83;98749.38;4919870;28;96701;-76
2021/11/26 10:24:16;;;;;;;29.77;20.80;;;;;;;5.96;59.65;98734.59;4935614;28;97303;-77
2021/11/26 10:26:52;;;;;;;30.33;19.40;;;;;;;6.05;59.37;98739.44;4951710;28;97582;-75
2021/11/26 10:29:32;;;;;;;28.33;18.27;;;;;;;6.02;59.79;98730.00;4935862;28;96640;-76
2021/11/26 10:32:11;;;;;;;27.90;18.67;;;;;;;6.04;59.42;98733.38;4935922;28;96791;-76
2021/11/26 10:34:39;;;;;;;30.87;19.57;;;;;;;5.94;59.78;98731.22;4951450;28;97542;-77
2021/11/26 10:37:17;;;;;;;30.23;18.13;;;;;;;5.98;59.71;98723.22;4935187;28;97358;-76
2021/11/26 10:39:43;;;;;;;28.63;20.00;;;;;;;5.98;59.69;98718.00;4951106;28;96398;-77
2021/11/26 10:42:09;;;;;;;29.43;21.13;;;;;;;5.98;59.91;98712.78;4919382;28;96802;-77
2021/11/26 10:47:13;;;;;;;28.37;19.97;;;;;;;6.01;59.70;98706.63;4936122;28;97744;-76
2021/11/26 10:49:50;;;;;;;29.20;19.93;;;;;;;6.05;59.66;98696.03;4904279;28;96530;-76
2021/11/26 10:52:49;;;;;;;32.77;21.13;;;;;;;6.02;59.84;98688.34;4950033;28;96632;-76
2021/11/26 11:01:07;;;;;;;29.43;18.20;;;;;;;6.01;60.20;98667.53;4934630;28;97004;-76
2021/11/26 11:03:32;;;;;;;25.07;16.90;;;;;;;6.01;60.53;98678.81;4935002;28;96724;-76
2021/11/26 11:05:58;;;;;;;22.17;14.70;;;;;;;6.08;59.96;98663.78;4918264;28;97409;-76
2021/11/26 11:08:24;;;;;;;23.17;15.83;;;;;;;6.02;59.63;98661.41;4950984;28;100012;-76
2021/11/26 11:10:52;;;;;;;26.60;16.13;;;;;;;6.00;60.16;98661.50;4934989;28;96542;-76
2021/11/26 11:13:23;;;;;;;24.43;17.27;;;;;;;6.03;59.94;98652.72;4918931;28;96823;-76
2021/11/26 11:15:50;;;;;;;23.37;15.90;;;;;;;6.00;60.39;98655.44;4950625;28;97654;-76
2021/11/26 11:18:16;;;;;;;24.47;15.97;;;;;;;6.01;60.25;98652.75;4934013;28;97788;-76
2021/11/26 11:20:43;;;;;;;27.87;17.23;;;;;;;6.04;60.41;98649.19;4934432;28;96557;-76
2021/11/26 11:23:08;;;;;;;27.03;17.30;;;;;;;6.07;60.45;98649.06;4951127;28;96872;-76
2021/11/26 11:25:34;;;;;;;29.40;17.00;;;;;;;6.06;60.27;98652.56;4934663;28;97894;-76
2021/11/26 11:28:06;;;;;;;25.77;16.42;;;;;;;6.11;60.00;98645.41;4950476;28;97178;-75
2021/11/26 11:30:33;;;;;;;29.48;17.27;;;;;;;6.07;60.33;98639.47;4917774;28;96540;-76